< < Back
Terminal Aerodrome Forecast


Current Version              Previous Versions:   1  2  3  4  5  6  7  8  9  

Terminal Aerodrome Forecast

327
FTUS44 KMOB 291024 AAC
TAFMOB
TAF AMD
KMOB 291024Z 2910/3006 VRB03KT P6SM SCT015 SCT200
      TEMPO 2910/2913 BKN015
     FM291800 14010KT P6SM BKN040
      TEMPO 2919/2922 VRB15G25KT 3SM TSRA SCT025CB BKN040=

Latest METAR

997
SAUS80 KWBC 292000 RRA
MTRMOB
METAR KMOB 291956Z 14013KT 10SM SCT043 SCT250 29/20 A3009 RMK AO2 SLP186
T02940200


USA.gov is the U.S. government's official web portal to all federal, state and local government web resources and services.